| time (UTC) | temp C | wind direction | speed KPH | gust KPH | rain 1hr cm | rain 24hr cm | rain mn cm | humidity % | barometer mb |
| 20260905194841 | 15 | 292 | 1.6 | 3.2 | 0.00 | 0.10 | 0.10 | 84 | 1018.0 |
| 20260905193941 | 15 | 292 | 1.6 | 3.2 | 0.00 | 0.10 | 0.10 | 84 | 1017.9 |
| 20260905193042 | 15 | 292 | 1.6 | 3.2 | 0.00 | 0.10 | 0.10 | 84 | 1018.0 |
| 20260905192141 | 15 | 292 | 1.6 | 3.2 | 0.00 | 0.10 | 0.10 | 84 | 1017.9 |
| 20260905191241 | 15 | 292 | 1.6 | 3.2 | 0.00 | 0.10 | 0.10 | 84 | 1018.1 |
| 20260905190341 | 15 | 292 | 1.6 | 3.2 | 0.00 | 0.10 | 0.10 | 84 | 1018.1 |
| 20260905184541 | 15 | 270 | 0.0 | 3.2 | 0.03 | 0.10 | 0.10 | 84 | 1018.3 |
| 20260905183641 | 15 | 315 | 3.2 | 3.2 | 0.03 | 0.10 | 0.10 | 81 | 1018.5 |
| 20260905182741 | 15 | 315 | 3.2 | 3.2 | 0.03 | 0.10 | 0.10 | 81 | 1018.4 |
| 20260905181841 | 15 | 315 | 3.2 | 6.4 | 0.03 | 0.10 | 0.10 | 81 | 1018.2 |
| 20260905180941 | 15 | 292 | 0.0 | 6.4 | 0.03 | 0.10 | 0.10 | 81 | 1018.0 |
| 20260905180041 | 15 | 270 | 1.6 | 3.2 | 0.03 | 0.10 | 0.10 | 80 | 1018.1 |
| 20260905175148 | 17 | 270 | 3.2 | 3.2 | 0.00 | 0.05 | 0.05 | 78 | 1016.9 |
| 20260905164636 | 17 | 270 | 3.2 | 3.2 | 0.00 | 0.05 | 0.05 | 78 | 1016.9 |
| 20260905163736 | 17 | 270 | 3.2 | 3.2 | 0.00 | 0.05 | 0.05 | 78 | 1016.9 |
| 20260905162836 | 17 | 270 | 3.2 | 3.2 | 0.00 | 0.05 | 0.05 | 78 | 1017.0 |
| 20260905161936 | 17 | 270 | 3.2 | 3.2 | 0.00 | 0.05 | 0.05 | 78 | 1017.3 |
| 20260905160136 | 17 | 270 | 3.2 | 3.2 | 0.00 | 0.05 | 0.05 | 78 | 1016.9 |
| 20260905155236 | 17 | 270 | 3.2 | 3.2 | 0.00 | 0.05 | 0.05 | 78 | 1016.5 |
| 20260905154336 | 17 | 202 | 1.6 | 6.4 | 0.00 | 0.05 | 0.05 | 78 | 1016.5 |
| 20260905153436 | 18 | 270 | 3.2 | 6.4 | 0.00 | 0.05 | 0.05 | 74 | 1016.2 |
| 20260905152536 | 18 | 225 | 0.0 | 3.2 | 0.00 | 0.05 | 0.05 | 74 | 1016.3 |
| 20260905151636 | 19 | 338 | 3.2 | 6.4 | 0.00 | 0.05 | 0.05 | 69 | 1016.3 |
| 20260905150736 | 19 | 315 | 3.2 | 6.4 | 0.00 | 0.05 | 0.05 | 66 | 1016.4 |
| 20260905145843 | 20 | 315 | 3.2 | 6.4 | 0.00 | 0.05 | 0.05 | 65 | 1016.4 |
| 20260905143406 | 20 | 315 | 3.2 | 12.9 | 0.00 | 0.05 | 0.05 | 65 | 1016.5 |
| 20260905141606 | 20 | 315 | 11.3 | 17.7 | 0.00 | 0.05 | 0.05 | 62 | 1016.7 |
| 20260905140706 | 20 | 315 | 6.4 | 17.7 | 0.00 | 0.05 | 0.05 | 63 | 1016.5 |
| 20260905135806 | 20 | 338 | 9.7 | 17.7 | 0.00 | 0.05 | 0.05 | 64 | 1016.3 |
| 20260905134907 | 20 | 315 | 6.4 | 11.3 | 0.05 | 0.05 | 0.05 | 66 | 1016.0 |
| 20260905134007 | 20 | 315 | 6.4 | 17.7 | 0.05 | 0.05 | 0.05 | 66 | 1015.9 |
| 20260905133107 | 20 | 360 | 9.7 | 17.7 | 0.05 | 0.05 | 0.05 | 67 | 1015.9 |
| 20260905130407 | 19 | 360 | 12.9 | 17.7 | 0.05 | 0.05 | 0.05 | 75 | 1015.8 |
| 20260905125506 | 18 | 315 | 3.2 | 17.7 | 0.05 | 0.05 | 0.05 | 80 | 1015.8 |
| 20260905124607 | 20 | 360 | 6.4 | 29.0 | 0.00 | 0.00 | 0.00 | 73 | 1016.1 |
| 20260905123706 | 23 | 360 | 9.7 | 27.4 | 0.00 | 0.00 | 0.00 | 62 | 1015.8 |
| 20260905122807 | 24 | 292 | 19.3 | 33.8 | 0.00 | 0.00 | 0.00 | 60 | 1016.1 |
| 20260905121907 | 24 | 22 | 17.7 | 32.2 | 0.00 | 0.00 | 0.00 | 61 | 1015.7 |
| 20260905121007 | 25 | 338 | 17.7 | 32.2 | 0.00 | 0.00 | 0.00 | 57 | 1015.2 |
| 20260905120107 | 27 | 338 | 14.5 | 33.8 | 0.00 | 0.00 | 0.00 | 54 | 1014.9 |
| 20260905115207 | 28 | 315 | 12.9 | 27.4 | 0.00 | 0.00 | 0.00 | 52 | 1014.8 |
| 20260905114307 | 30 | 338 | 11.3 | 17.7 | 0.00 | 0.00 | 0.00 | 50 | 1014.3 |
| 20260905113407 | 29 | 338 | 6.4 | 11.3 | 0.00 | 0.00 | 0.00 | 50 | 1014.3 |
| 20260905111607 | 31 | 292 | 8.0 | 14.5 | 0.00 | 0.00 | 0.00 | 45 | 1013.7 |
| 20260905110707 | 30 | 338 | 6.4 | 14.5 | 0.00 | 0.00 | 0.00 | 45 | 1014.1 |
| 20260905105807 | 30 | 360 | 8.0 | 14.5 | 0.00 | 0.00 | 0.00 | 45 | 1013.9 |
| 20260905104906 | 30 | 338 | 3.2 | 11.3 | 0.00 | 0.00 | 0.00 | 42 | 1013.8 |
| 20260905103107 | 30 | 360 | 3.2 | 11.3 | 0.00 | 0.00 | 0.00 | 45 | 1013.9 |
| 20260905102207 | 30 | 315 | 0.0 | 6.4 | 0.00 | 0.00 | 0.00 | 45 | 1013.8 |
| 20260905101307 | 30 | 270 | 3.2 | 6.4 | 0.00 | 0.00 | 0.00 | 50 | 1013.7 |
| 20260905100407 | 29 | 292 | 3.2 | 12.9 | 0.00 | 0.00 | 0.00 | 46 | 1013.7 |
| 20260905095507 | 30 | 180 | 3.2 | 11.3 | 0.00 | 0.00 | 0.00 | 45 | 1013.7 |
| 20260905094607 | 30 | 248 | 3.2 | 9.7 | 0.00 | 0.00 | 0.00 | 46 | 1013.6 |
| 20260905093707 | 30 | 135 | 3.2 | 12.9 | 0.00 | 0.00 | 0.00 | 47 | 1013.6 |
| 20260905092806 | 29 | 180 | 4.8 | 14.5 | 0.00 | 0.00 | 0.00 | 46 | 1013.5 |
| 20260905091907 | 28 | 158 | 3.2 | 11.3 | 0.00 | 0.00 | 0.00 | 47 | 1013.7 |
| 20260905090107 | 28 | 135 | 3.2 | 11.3 | 0.00 | 0.00 | 0.00 | 49 | 1013.7 |
| 20260905085207 | 28 | 135 | 3.2 | 11.3 | 0.00 | 0.00 | 0.00 | 50 | 1014.0 |
| 20260905084307 | 28 | 135 | 4.8 | 9.7 | 0.00 | 0.00 | 0.00 | 50 | 1013.9 |
| 20260905083407 | 26 | 158 | 3.2 | 9.7 | 0.00 | 0.00 | 0.00 | 56 | 1013.8 |
| 20260905082506 | 27 | 135 | 4.8 | 9.7 | 0.00 | 0.00 | 0.00 | 53 | 1013.7 |
| 20260905081607 | 27 | 158 | 1.6 | 11.3 | 0.00 | 0.00 | 0.00 | 54 | 1013.9 |
| 20260905080707 | 27 | 270 | 3.2 | 12.9 | 0.00 | 0.00 | 0.00 | 50 | 1014.1 |
| 20260905075806 | 27 | 202 | 4.8 | 11.3 | 0.00 | 0.00 | 0.00 | 49 | 1013.8 |
| 20260905074907 | 25 | 248 | 6.4 | 11.3 | 0.00 | 0.00 | 0.00 | 54 | 1014.1 |
| 20260905073106 | 24 | 158 | 4.8 | 9.7 | 0.00 | 0.00 | 0.00 | 58 | 1014.3 |
| 20260905072207 | 23 | 202 | 3.2 | 9.7 | 0.00 | 0.00 | 0.00 | 60 | 1014.3 |
| 20260905071306 | 23 | 225 | 3.2 | 11.3 | 0.00 | 0.00 | 0.00 | 61 | 1014.5 |
| 20260905070407 | 23 | 225 | 3.2 | 12.9 | 0.00 | 0.00 | 0.00 | 59 | 1014.6 |
| 20260905065507 | 23 | 248 | 4.8 | 12.9 | 0.00 | 0.00 | 0.00 | 60 | 1014.7 |
| 20260905064607 | 23 | 270 | 3.2 | 11.3 | 0.00 | 0.00 | 0.00 | 61 | 1014.6 |